sensor_id;sensor_type;location;lat;lon;timestamp;P1;durP1;ratioP1;P2;durP2;ratioP2
691;SDS011;70475;50.084;8.576;2023-08-06T00:00:46;4.90;;;3.90;;
691;SDS011;70475;50.084;8.576;2023-08-06T00:03:15;4.13;;;3.63;;
691;SDS011;70475;50.084;8.576;2023-08-06T00:05:42;10.80;;;4.10;;
691;SDS011;70475;50.084;8.576;2023-08-06T00:08:10;4.43;;;3.87;;
691;SDS011;70475;50.084;8.576;2023-08-06T00:10:39;4.77;;;3.53;;
691;SDS011;70475;50.084;8.576;2023-08-06T00:13:06;4.13;;;3.73;;
691;SDS011;70475;50.084;8.576;2023-08-06T00:15:34;4.87;;;4.10;;
691;SDS011;70475;50.084;8.576;2023-08-06T00:18:01;4.13;;;3.60;;
691;SDS011;70475;50.084;8.576;2023-08-06T00:20:31;5.60;;;4.87;;
691;SDS011;70475;50.084;8.576;2023-08-06T00:22:58;4.00;;;3.70;;
691;SDS011;70475;50.084;8.576;2023-08-06T00:25:26;5.20;;;4.17;;
691;SDS011;70475;50.084;8.576;2023-08-06T00:27:53;4.57;;;4.13;;
691;SDS011;70475;50.084;8.576;2023-08-06T00:30:22;6.97;;;3.73;;
691;SDS011;70475;50.084;8.576;2023-08-06T00:32:50;4.50;;;4.10;;
691;SDS011;70475;50.084;8.576;2023-08-06T00:35:17;5.43;;;3.50;;
691;SDS011;70475;50.084;8.576;2023-08-06T00:37:46;4.40;;;3.67;;
691;SDS011;70475;50.084;8.576;2023-08-06T00:40:14;5.30;;;4.40;;
691;SDS011;70475;50.084;8.576;2023-08-06T00:42:41;5.20;;;3.83;;
691;SDS011;70475;50.084;8.576;2023-08-06T00:45:11;4.90;;;4.03;;
691;SDS011;70475;50.084;8.576;2023-08-06T00:47:38;4.17;;;3.63;;
691;SDS011;70475;50.084;8.576;2023-08-06T00:50:06;5.20;;;4.13;;
691;SDS011;70475;50.084;8.576;2023-08-06T00:52:35;5.73;;;4.20;;
691;SDS011;70475;50.084;8.576;2023-08-06T00:55:05;5.20;;;4.37;;
691;SDS011;70475;50.084;8.576;2023-08-06T00:57:33;7.43;;;4.97;;
691;SDS011;70475;50.084;8.576;2023-08-06T01:00:02;4.03;;;3.63;;
691;SDS011;70475;50.084;8.576;2023-08-06T01:02:30;6.00;;;4.27;;
691;SDS011;70475;50.084;8.576;2023-08-06T01:04:58;5.80;;;4.27;;
691;SDS011;70475;50.084;8.576;2023-08-06T01:07:30;7.30;;;4.20;;
691;SDS011;70475;50.084;8.576;2023-08-06T01:10:15;6.93;;;4.37;;
691;SDS011;70475;50.084;8.576;2023-08-06T01:12:51;3.90;;;3.60;;
691;SDS011;70475;50.084;8.576;2023-08-06T01:15:32;5.30;;;3.97;;
691;SDS011;70475;50.084;8.576;2023-08-06T01:18:02;4.93;;;4.27;;
691;SDS011;70475;50.084;8.576;2023-08-06T01:20:31;5.67;;;3.80;;
691;SDS011;70475;50.084;8.576;2023-08-06T01:22:59;4.07;;;3.67;;
691;SDS011;70475;50.084;8.576;2023-08-06T01:25:29;4.90;;;3.93;;
691;SDS011;70475;50.084;8.576;2023-08-06T01:28:00;5.10;;;4.00;;
691;SDS011;70475;50.084;8.576;2023-08-06T01:30:32;4.00;;;3.60;;
691;SDS011;70475;50.084;8.576;2023-08-06T01:33:03;6.83;;;3.97;;
691;SDS011;70475;50.084;8.576;2023-08-06T01:35:33;8.47;;;4.50;;
691;SDS011;70475;50.084;8.576;2023-08-06T01:38:03;5.00;;;4.00;;
691;SDS011;70475;50.084;8.576;2023-08-06T01:40:31;5.40;;;3.80;;
691;SDS011;70475;50.084;8.576;2023-08-06T01:43:00;5.00;;;3.93;;
691;SDS011;70475;50.084;8.576;2023-08-06T01:45:27;4.63;;;3.80;;
691;SDS011;70475;50.084;8.576;2023-08-06T01:47:55;5.70;;;3.73;;
691;SDS011;70475;50.084;8.576;2023-08-06T01:50:23;5.10;;;3.87;;
691;SDS011;70475;50.084;8.576;2023-08-06T01:52:53;4.40;;;3.83;;
691;SDS011;70475;50.084;8.576;2023-08-06T01:55:20;3.87;;;3.17;;
691;SDS011;70475;50.084;8.576;2023-08-06T01:57:48;6.47;;;3.40;;
691;SDS011;70475;50.084;8.576;2023-08-06T02:00:15;3.50;;;3.00;;
691;SDS011;70475;50.084;8.576;2023-08-06T02:02:43;6.43;;;4.00;;
691;SDS011;70475;50.084;8.576;2023-08-06T02:05:11;6.90;;;3.20;;
691;SDS011;70475;50.084;8.576;2023-08-06T02:07:38;4.57;;;4.17;;
691;SDS011;70475;50.084;8.576;2023-08-06T02:10:08;9.63;;;4.40;;
691;SDS011;70475;50.084;8.576;2023-08-06T02:12:35;5.83;;;3.50;;
691;SDS011;70475;50.084;8.576;2023-08-06T02:15:03;3.43;;;3.13;;
691;SDS011;70475;50.084;8.576;2023-08-06T02:17:31;4.50;;;3.40;;
691;SDS011;70475;50.084;8.576;2023-08-06T02:19:59;7.60;;;4.00;;
691;SDS011;70475;50.084;8.576;2023-08-06T02:22:27;8.10;;;5.53;;
691;SDS011;70475;50.084;8.576;2023-08-06T02:24:55;6.53;;;3.93;;
691;SDS011;70475;50.084;8.576;2023-08-06T02:27:24;4.20;;;3.27;;
691;SDS011;70475;50.084;8.576;2023-08-06T02:29:51;3.30;;;2.80;;
691;SDS011;70475;50.084;8.576;2023-08-06T02:32:19;4.33;;;3.50;;
691;SDS011;70475;50.084;8.576;2023-08-06T02:34:46;4.03;;;3.50;;
691;SDS011;70475;50.084;8.576;2023-08-06T02:37:14;4.13;;;3.60;;
691;SDS011;70475;50.084;8.576;2023-08-06T02:39:41;4.83;;;3.60;;
691;SDS011;70475;50.084;8.576;2023-08-06T02:42:09;3.87;;;3.00;;
691;SDS011;70475;50.084;8.576;2023-08-06T02:44:38;3.93;;;3.33;;
691;SDS011;70475;50.084;8.576;2023-08-06T02:47:05;5.50;;;3.13;;
691;SDS011;70475;50.084;8.576;2023-08-06T02:49:33;3.30;;;3.00;;
691;SDS011;70475;50.084;8.576;2023-08-06T02:52:00;5.33;;;3.07;;
691;SDS011;70475;50.084;8.576;2023-08-06T02:54:28;4.73;;;3.50;;
691;SDS011;70475;50.084;8.576;2023-08-06T02:56:55;3.37;;;2.83;;
691;SDS011;70475;50.084;8.576;2023-08-06T02:59:23;5.63;;;3.63;;
691;SDS011;70475;50.084;8.576;2023-08-06T03:01:52;3.23;;;2.93;;
691;SDS011;70475;50.084;8.576;2023-08-06T03:04:20;5.00;;;2.80;;
691;SDS011;70475;50.084;8.576;2023-08-06T03:06:49;4.37;;;3.20;;
691;SDS011;70475;50.084;8.576;2023-08-06T03:09:16;3.50;;;2.93;;
691;SDS011;70475;50.084;8.576;2023-08-06T03:11:44;3.73;;;3.20;;
691;SDS011;70475;50.084;8.576;2023-08-06T03:14:11;3.53;;;3.00;;
691;SDS011;70475;50.084;8.576;2023-08-06T03:16:39;3.57;;;2.97;;
691;SDS011;70475;50.084;8.576;2023-08-06T03:19:08;3.27;;;2.80;;
691;SDS011;70475;50.084;8.576;2023-08-06T03:21:35;4.67;;;3.70;;
691;SDS011;70475;50.084;8.576;2023-08-06T03:24:03;4.90;;;3.37;;
691;SDS011;70475;50.084;8.576;2023-08-06T03:26:31;6.60;;;3.13;;
691;SDS011;70475;50.084;8.576;2023-08-06T03:28:58;7.60;;;2.93;;
691;SDS011;70475;50.084;8.576;2023-08-06T03:31:26;4.40;;;3.90;;
691;SDS011;70475;50.084;8.576;2023-08-06T03:33:53;2.77;;;2.57;;
691;SDS011;70475;50.084;8.576;2023-08-06T03:36:22;4.33;;;3.10;;
691;SDS011;70475;50.084;8.576;2023-08-06T03:38:50;3.60;;;3.13;;
691;SDS011;70475;50.084;8.576;2023-08-06T03:41:17;3.53;;;2.80;;
691;SDS011;70475;50.084;8.576;2023-08-06T03:43:45;3.97;;;3.20;;
691;SDS011;70475;50.084;8.576;2023-08-06T03:46:12;5.93;;;3.13;;
691;SDS011;70475;50.084;8.576;2023-08-06T03:48:40;8.00;;;3.00;;
691;SDS011;70475;50.084;8.576;2023-08-06T03:51:08;4.67;;;3.17;;
691;SDS011;70475;50.084;8.576;2023-08-06T03:53:36;3.10;;;2.77;;
691;SDS011;70475;50.084;8.576;2023-08-06T03:56:04;3.70;;;2.53;;
691;SDS011;70475;50.084;8.576;2023-08-06T03:58:32;2.90;;;2.53;;
691;SDS011;70475;50.084;8.576;2023-08-06T04:00:59;3.13;;;2.30;;
691;SDS011;70475;50.084;8.576;2023-08-06T04:03:28;3.50;;;2.47;;
691;SDS011;70475;50.084;8.576;2023-08-06T04:05:55;2.83;;;2.20;;
691;SDS011;70475;50.084;8.576;2023-08-06T04:08:23;3.60;;;2.60;;
691;SDS011;70475;50.084;8.576;2023-08-06T04:10:52;5.00;;;2.40;;
691;SDS011;70475;50.084;8.576;2023-08-06T04:13:20;3.90;;;2.50;;
691;SDS011;70475;50.084;8.576;2023-08-06T04:15:47;4.90;;;2.30;;
691;SDS011;70475;50.084;8.576;2023-08-06T04:18:15;2.40;;;2.00;;
691;SDS011;70475;50.084;8.576;2023-08-06T04:20:43;2.93;;;2.03;;
691;SDS011;70475;50.084;8.576;2023-08-06T04:23:11;2.27;;;1.87;;
691;SDS011;70475;50.084;8.576;2023-08-06T04:25:39;4.63;;;2.60;;
691;SDS011;70475;50.084;8.576;2023-08-06T04:28:08;4.13;;;1.80;;
691;SDS011;70475;50.084;8.576;2023-08-06T04:30:36;5.40;;;2.00;;
691;SDS011;70475;50.084;8.576;2023-08-06T04:33:04;2.70;;;1.87;;
691;SDS011;70475;50.084;8.576;2023-08-06T04:35:32;5.63;;;2.30;;
691;SDS011;70475;50.084;8.576;2023-08-06T04:37:59;4.03;;;2.20;;
691;SDS011;70475;50.084;8.576;2023-08-06T04:40:27;2.57;;;1.97;;
691;SDS011;70475;50.084;8.576;2023-08-06T04:42:54;2.27;;;2.07;;
691;SDS011;70475;50.084;8.576;2023-08-06T04:45:23;3.50;;;1.80;;
691;SDS011;70475;50.084;8.576;2023-08-06T04:47:51;2.67;;;1.50;;
691;SDS011;70475;50.084;8.576;2023-08-06T04:50:19;3.37;;;1.60;;
691;SDS011;70475;50.084;8.576;2023-08-06T04:52:46;2.00;;;1.80;;
691;SDS011;70475;50.084;8.576;2023-08-06T04:55:14;3.13;;;1.70;;
691;SDS011;70475;50.084;8.576;2023-08-06T04:57:42;2.97;;;2.00;;
691;SDS011;70475;50.084;8.576;2023-08-06T05:00:09;6.43;;;2.00;;
691;SDS011;70475;50.084;8.576;2023-08-06T05:02:39;3.57;;;2.30;;
691;SDS011;70475;50.084;8.576;2023-08-06T05:05:06;4.80;;;1.50;;
691;SDS011;70475;50.084;8.576;2023-08-06T05:07:34;4.00;;;1.40;;
691;SDS011;70475;50.084;8.576;2023-08-06T05:10:02;4.63;;;1.60;;
691;SDS011;70475;50.084;8.576;2023-08-06T05:12:30;4.20;;;1.43;;
691;SDS011;70475;50.084;8.576;2023-08-06T05:14:58;1.93;;;1.33;;
691;SDS011;70475;50.084;8.576;2023-08-06T05:17:25;2.47;;;1.33;;
691;SDS011;70475;50.084;8.576;2023-08-06T05:19:55;2.87;;;1.30;;
691;SDS011;70475;50.084;8.576;2023-08-06T05:22:24;2.60;;;1.60;;
691;SDS011;70475;50.084;8.576;2023-08-06T05:24:52;2.10;;;1.20;;
691;SDS011;70475;50.084;8.576;2023-08-06T05:27:19;2.60;;;1.20;;
691;SDS011;70475;50.084;8.576;2023-08-06T05:29:47;1.57;;;1.13;;
691;SDS011;70475;50.084;8.576;2023-08-06T05:32:15;2.03;;;1.40;;
691;SDS011;70475;50.084;8.576;2023-08-06T05:34:42;1.57;;;1.30;;
691;SDS011;70475;50.084;8.576;2023-08-06T05:37:11;1.10;;;1.00;;
691;SDS011;70475;50.084;8.576;2023-08-06T05:39:39;2.47;;;1.30;;
691;SDS011;70475;50.084;8.576;2023-08-06T05:42:06;1.97;;;1.00;;
691;SDS011;70475;50.084;8.576;2023-08-06T05:44:34;2.10;;;1.10;;
691;SDS011;70475;50.084;8.576;2023-08-06T05:47:02;2.37;;;1.17;;
691;SDS011;70475;50.084;8.576;2023-08-06T05:49:29;1.60;;;1.10;;
691;SDS011;70475;50.084;8.576;2023-08-06T05:51:57;5.83;;;1.57;;
691;SDS011;70475;50.084;8.576;2023-08-06T05:54:27;3.10;;;1.60;;
691;SDS011;70475;50.084;8.576;2023-08-06T05:56:54;1.37;;;1.27;;
691;SDS011;70475;50.084;8.576;2023-08-06T05:59:22;2.23;;;1.23;;
691;SDS011;70475;50.084;8.576;2023-08-06T06:01:49;1.23;;;0.90;;
691;SDS011;70475;50.084;8.576;2023-08-06T06:04:17;1.63;;;1.00;;
691;SDS011;70475;50.084;8.576;2023-08-06T06:06:45;2.30;;;1.40;;
691;SDS011;70475;50.084;8.576;2023-08-06T06:09:12;2.70;;;1.07;;
691;SDS011;70475;50.084;8.576;2023-08-06T06:11:41;1.90;;;1.00;;
691;SDS011;70475;50.084;8.576;2023-08-06T06:14:09;1.73;;;1.10;;
691;SDS011;70475;50.084;8.576;2023-08-06T06:16:36;2.93;;;1.00;;
691;SDS011;70475;50.084;8.576;2023-08-06T06:19:04;4.03;;;0.90;;
691;SDS011;70475;50.084;8.576;2023-08-06T06:21:31;1.80;;;0.97;;
691;SDS011;70475;50.084;8.576;2023-08-06T06:23:59;2.20;;;0.60;;
691;SDS011;70475;50.084;8.576;2023-08-06T06:26:26;1.60;;;1.00;;
691;SDS011;70475;50.084;8.576;2023-08-06T06:28:55;0.80;;;0.80;;
691;SDS011;70475;50.084;8.576;2023-08-06T06:31:23;3.20;;;0.67;;
691;SDS011;70475;50.084;8.576;2023-08-06T06:33:51;1.53;;;1.03;;
691;SDS011;70475;50.084;8.576;2023-08-06T06:36:20;1.93;;;0.60;;
691;SDS011;70475;50.084;8.576;2023-08-06T06:38:48;2.30;;;0.70;;
691;SDS011;70475;50.084;8.576;2023-08-06T06:41:16;2.70;;;0.93;;
691;SDS011;70475;50.084;8.576;2023-08-06T06:43:43;2.80;;;0.57;;
691;SDS011;70475;50.084;8.576;2023-08-06T06:46:12;1.03;;;0.50;;
691;SDS011;70475;50.084;8.576;2023-08-06T06:48:40;3.60;;;0.80;;
691;SDS011;70475;50.084;8.576;2023-08-06T06:51:07;1.10;;;0.70;;
691;SDS011;70475;50.084;8.576;2023-08-06T06:53:35;1.20;;;0.50;;
691;SDS011;70475;50.084;8.576;2023-08-06T06:56:03;0.97;;;0.57;;
691;SDS011;70475;50.084;8.576;2023-08-06T06:58:32;1.07;;;0.57;;
691;SDS011;70475;50.084;8.576;2023-08-06T07:01:00;1.87;;;0.53;;
691;SDS011;70475;50.084;8.576;2023-08-06T07:03:28;1.10;;;0.57;;
691;SDS011;70475;50.084;8.576;2023-08-06T07:05:57;1.30;;;0.57;;
691;SDS011;70475;50.084;8.576;2023-08-06T07:08:25;0.70;;;0.40;;
691;SDS011;70475;50.084;8.576;2023-08-06T07:10:59;1.20;;;0.60;;
691;SDS011;70475;50.084;8.576;2023-08-06T07:13:27;0.87;;;0.50;;
691;SDS011;70475;50.084;8.576;2023-08-06T07:15:55;1.27;;;0.60;;
691;SDS011;70475;50.084;8.576;2023-08-06T07:18:22;3.23;;;0.60;;
691;SDS011;70475;50.084;8.576;2023-08-06T07:20:52;0.70;;;0.40;;
691;SDS011;70475;50.084;8.576;2023-08-06T07:23:20;2.17;;;0.70;;
691;SDS011;70475;50.084;8.576;2023-08-06T07:25:48;1.23;;;0.67;;
691;SDS011;70475;50.084;8.576;2023-08-06T07:28:16;1.63;;;0.57;;
691;SDS011;70475;50.084;8.576;2023-08-06T07:30:44;2.10;;;0.63;;
691;SDS011;70475;50.084;8.576;2023-08-06T07:33:12;1.53;;;0.50;;
691;SDS011;70475;50.084;8.576;2023-08-06T07:35:40;0.70;;;0.50;;
691;SDS011;70475;50.084;8.576;2023-08-06T07:38:09;1.17;;;0.63;;
691;SDS011;70475;50.084;8.576;2023-08-06T07:40:36;0.83;;;0.50;;
691;SDS011;70475;50.084;8.576;2023-08-06T07:43:04;0.87;;;0.60;;
691;SDS011;70475;50.084;8.576;2023-08-06T07:45:32;1.00;;;0.50;;
691;SDS011;70475;50.084;8.576;2023-08-06T07:48:01;0.80;;;0.50;;
691;SDS011;70475;50.084;8.576;2023-08-06T07:50:30;0.70;;;0.50;;
691;SDS011;70475;50.084;8.576;2023-08-06T07:52:58;5.67;;;0.50;;
691;SDS011;70475;50.084;8.576;2023-08-06T07:55:27;1.10;;;0.50;;
691;SDS011;70475;50.084;8.576;2023-08-06T07:57:54;2.70;;;0.60;;
691;SDS011;70475;50.084;8.576;2023-08-06T08:00:22;0.70;;;0.50;;
691;SDS011;70475;50.084;8.576;2023-08-06T08:02:50;1.63;;;0.50;;
691;SDS011;70475;50.084;8.576;2023-08-06T08:05:18;0.80;;;0.50;;
691;SDS011;70475;50.084;8.576;2023-08-06T08:07:45;0.70;;;0.50;;
691;SDS011;70475;50.084;8.576;2023-08-06T08:10:13;0.90;;;0.67;;
691;SDS011;70475;50.084;8.576;2023-08-06T08:12:42;1.20;;;0.57;;
691;SDS011;70475;50.084;8.576;2023-08-06T08:15:10;0.90;;;0.50;;
691;SDS011;70475;50.084;8.576;2023-08-06T08:17:37;1.90;;;0.60;;
691;SDS011;70475;50.084;8.576;2023-08-06T08:20:05;0.70;;;0.43;;
691;SDS011;70475;50.084;8.576;2023-08-06T08:22:33;1.63;;;0.50;;
691;SDS011;70475;50.084;8.576;2023-08-06T08:25:01;3.30;;;0.60;;
691;SDS011;70475;50.084;8.576;2023-08-06T08:27:29;1.00;;;0.70;;
691;SDS011;70475;50.084;8.576;2023-08-06T08:29:58;1.27;;;0.70;;
691;SDS011;70475;50.084;8.576;2023-08-06T08:32:25;3.10;;;0.70;;
691;SDS011;70475;50.084;8.576;2023-08-06T08:34:53;0.80;;;0.50;;
691;SDS011;70475;50.084;8.576;2023-08-06T08:37:21;1.20;;;0.70;;
691;SDS011;70475;50.084;8.576;2023-08-06T08:39:48;0.70;;;0.50;;
691;SDS011;70475;50.084;8.576;2023-08-06T08:42:16;0.80;;;0.60;;
691;SDS011;70475;50.084;8.576;2023-08-06T08:44:44;0.70;;;0.50;;
691;SDS011;70475;50.084;8.576;2023-08-06T08:47:13;0.80;;;0.60;;
691;SDS011;70475;50.084;8.576;2023-08-06T08:49:42;4.27;;;0.80;;
691;SDS011;70475;50.084;8.576;2023-08-06T08:52:11;0.90;;;0.50;;
691;SDS011;70475;50.084;8.576;2023-08-06T08:54:41;1.00;;;0.50;;
691;SDS011;70475;50.084;8.576;2023-08-06T08:57:10;0.80;;;0.50;;
691;SDS011;70475;50.084;8.576;2023-08-06T08:59:38;2.63;;;0.60;;
691;SDS011;70475;50.084;8.576;2023-08-06T09:02:05;1.53;;;0.60;;
691;SDS011;70475;50.084;8.576;2023-08-06T09:04:39;1.33;;;0.70;;
691;SDS011;70475;50.084;8.576;2023-08-06T09:07:07;2.50;;;1.03;;
691;SDS011;70475;50.084;8.576;2023-08-06T09:09:37;0.80;;;0.50;;
691;SDS011;70475;50.084;8.576;2023-08-06T09:12:11;1.27;;;0.40;;
691;SDS011;70475;50.084;8.576;2023-08-06T09:14:41;0.70;;;0.40;;
691;SDS011;70475;50.084;8.576;2023-08-06T09:17:09;1.37;;;0.40;;
691;SDS011;70475;50.084;8.576;2023-08-06T09:19:39;0.60;;;0.30;;
691;SDS011;70475;50.084;8.576;2023-08-06T09:22:11;0.70;;;0.40;;
691;SDS011;70475;50.084;8.576;2023-08-06T09:24:40;0.80;;;0.50;;
691;SDS011;70475;50.084;8.576;2023-08-06T09:27:10;2.50;;;0.50;;
691;SDS011;70475;50.084;8.576;2023-08-06T09:29:40;0.70;;;0.47;;
691;SDS011;70475;50.084;8.576;2023-08-06T09:32:09;0.90;;;0.40;;
691;SDS011;70475;50.084;8.576;2023-08-06T09:34:39;2.40;;;0.50;;
691;SDS011;70475;50.084;8.576;2023-08-06T09:37:08;0.80;;;0.70;;
691;SDS011;70475;50.084;8.576;2023-08-06T09:39:38;0.70;;;0.50;;
691;SDS011;70475;50.084;8.576;2023-08-06T09:42:07;1.90;;;0.70;;
691;SDS011;70475;50.084;8.576;2023-08-06T09:44:34;0.70;;;0.50;;
691;SDS011;70475;50.084;8.576;2023-08-06T09:47:03;1.30;;;0.50;;
691;SDS011;70475;50.084;8.576;2023-08-06T09:49:41;1.17;;;0.67;;
691;SDS011;70475;50.084;8.576;2023-08-06T09:52:12;1.10;;;0.70;;
691;SDS011;70475;50.084;8.576;2023-08-06T09:54:42;1.10;;;0.63;;
691;SDS011;70475;50.084;8.576;2023-08-06T09:57:10;0.80;;;0.60;;
691;SDS011;70475;50.084;8.576;2023-08-06T09:59:39;0.60;;;0.40;;
691;SDS011;70475;50.084;8.576;2023-08-06T10:02:12;0.70;;;0.50;;
691;SDS011;70475;50.084;8.576;2023-08-06T10:04:43;0.97;;;0.60;;
691;SDS011;70475;50.084;8.576;2023-08-06T10:07:20;1.80;;;0.50;;
691;SDS011;70475;50.084;8.576;2023-08-06T10:09:50;0.70;;;0.40;;
691;SDS011;70475;50.084;8.576;2023-08-06T10:12:17;0.80;;;0.60;;
691;SDS011;70475;50.084;8.576;2023-08-06T10:14:46;2.27;;;1.10;;
691;SDS011;70475;50.084;8.576;2023-08-06T10:17:15;0.80;;;0.50;;
691;SDS011;70475;50.084;8.576;2023-08-06T10:19:45;1.70;;;0.60;;
691;SDS011;70475;50.084;8.576;2023-08-06T10:22:14;1.97;;;0.57;;
691;SDS011;70475;50.084;8.576;2023-08-06T10:24:47;1.10;;;0.80;;
691;SDS011;70475;50.084;8.576;2023-08-06T10:27:19;6.40;;;1.20;;
691;SDS011;70475;50.084;8.576;2023-08-06T10:29:50;1.93;;;0.60;;
691;SDS011;70475;50.084;8.576;2023-08-06T10:32:17;1.57;;;1.20;;
691;SDS011;70475;50.084;8.576;2023-08-06T10:34:56;1.80;;;0.80;;
691;SDS011;70475;50.084;8.576;2023-08-06T10:37:29;1.00;;;0.57;;
691;SDS011;70475;50.084;8.576;2023-08-06T10:40:02;1.00;;;0.63;;
691;SDS011;70475;50.084;8.576;2023-08-06T10:42:33;4.13;;;1.10;;
691;SDS011;70475;50.084;8.576;2023-08-06T10:45:13;0.87;;;0.53;;
691;SDS011;70475;50.084;8.576;2023-08-06T10:47:41;0.70;;;0.53;;
691;SDS011;70475;50.084;8.576;2023-08-06T10:50:12;0.80;;;0.50;;
691;SDS011;70475;50.084;8.576;2023-08-06T10:52:42;1.53;;;0.53;;
691;SDS011;70475;50.084;8.576;2023-08-06T10:55:10;2.03;;;1.37;;
691;SDS011;70475;50.084;8.576;2023-08-06T10:57:38;4.10;;;1.27;;
691;SDS011;70475;50.084;8.576;2023-08-06T11:00:07;2.80;;;0.77;;
691;SDS011;70475;50.084;8.576;2023-08-06T11:02:42;3.57;;;0.90;;
691;SDS011;70475;50.084;8.576;2023-08-06T11:05:12;1.53;;;0.60;;
691;SDS011;70475;50.084;8.576;2023-08-06T11:07:40;0.90;;;0.60;;
691;SDS011;70475;50.084;8.576;2023-08-06T11:10:09;1.17;;;0.57;;
691;SDS011;70475;50.084;8.576;2023-08-06T11:12:38;0.73;;;0.40;;
691;SDS011;70475;50.084;8.576;2023-08-06T11:15:06;0.70;;;0.50;;
691;SDS011;70475;50.084;8.576;2023-08-06T11:17:34;0.70;;;0.40;;
691;SDS011;70475;50.084;8.576;2023-08-06T11:20:03;0.90;;;0.50;;
691;SDS011;70475;50.084;8.576;2023-08-06T11:22:33;0.80;;;0.50;;
691;SDS011;70475;50.084;8.576;2023-08-06T11:25:04;0.80;;;0.50;;
691;SDS011;70475;50.084;8.576;2023-08-06T11:27:33;0.80;;;0.60;;
691;SDS011;70475;50.084;8.576;2023-08-06T11:30:01;0.70;;;0.50;;
691;SDS011;70475;50.084;8.576;2023-08-06T11:32:29;3.53;;;0.70;;
691;SDS011;70475;50.084;8.576;2023-08-06T11:34:56;1.13;;;0.50;;
691;SDS011;70475;50.084;8.576;2023-08-06T11:37:24;2.37;;;1.23;;
691;SDS011;70475;50.084;8.576;2023-08-06T11:39:53;0.83;;;0.60;;
691;SDS011;70475;50.084;8.576;2023-08-06T11:42:22;1.57;;;0.70;;
691;SDS011;70475;50.084;8.576;2023-08-06T11:44:51;1.07;;;0.60;;
691;SDS011;70475;50.084;8.576;2023-08-06T11:47:19;1.17;;;0.60;;
691;SDS011;70475;50.084;8.576;2023-08-06T11:49:47;2.37;;;0.60;;
691;SDS011;70475;50.084;8.576;2023-08-06T11:52:16;1.40;;;0.77;;
691;SDS011;70475;50.084;8.576;2023-08-06T11:55:00;1.40;;;0.53;;
691;SDS011;70475;50.084;8.576;2023-08-06T11:57:29;1.30;;;0.50;;
691;SDS011;70475;50.084;8.576;2023-08-06T12:00:01;1.10;;;0.50;;
691;SDS011;70475;50.084;8.576;2023-08-06T12:02:31;0.70;;;0.40;;
691;SDS011;70475;50.084;8.576;2023-08-06T12:05:04;0.70;;;0.40;;
691;SDS011;70475;50.084;8.576;2023-08-06T12:07:37;0.80;;;0.50;;
691;SDS011;70475;50.084;8.576;2023-08-06T12:10:07;0.80;;;0.40;;
691;SDS011;70475;50.084;8.576;2023-08-06T12:12:35;1.00;;;0.50;;
691;SDS011;70475;50.084;8.576;2023-08-06T12:15:04;1.07;;;0.50;;
691;SDS011;70475;50.084;8.576;2023-08-06T12:17:32;1.17;;;0.50;;
691;SDS011;70475;50.084;8.576;2023-08-06T12:20:00;1.00;;;0.50;;
691;SDS011;70475;50.084;8.576;2023-08-06T12:22:30;0.70;;;0.40;;
691;SDS011;70475;50.084;8.576;2023-08-06T12:25:01;0.80;;;0.40;;
691;SDS011;70475;50.084;8.576;2023-08-06T12:27:31;0.70;;;0.40;;
691;SDS011;70475;50.084;8.576;2023-08-06T12:29:58;0.60;;;0.40;;
691;SDS011;70475;50.084;8.576;2023-08-06T12:32:26;0.60;;;0.40;;
691;SDS011;70475;50.084;8.576;2023-08-06T12:34:53;0.80;;;0.40;;
691;SDS011;70475;50.084;8.576;2023-08-06T12:37:21;1.13;;;0.50;;
691;SDS011;70475;50.084;8.576;2023-08-06T12:39:49;0.83;;;0.43;;
691;SDS011;70475;50.084;8.576;2023-08-06T12:42:16;0.60;;;0.40;;
691;SDS011;70475;50.084;8.576;2023-08-06T12:44:45;2.70;;;0.50;;
691;SDS011;70475;50.084;8.576;2023-08-06T12:47:15;1.00;;;0.50;;
691;SDS011;70475;50.084;8.576;2023-08-06T12:49:43;0.70;;;0.43;;
691;SDS011;70475;50.084;8.576;2023-08-06T12:52:10;0.90;;;0.50;;
691;SDS011;70475;50.084;8.576;2023-08-06T12:54:38;1.30;;;0.50;;
691;SDS011;70475;50.084;8.576;2023-08-06T12:57:06;0.70;;;0.50;;
691;SDS011;70475;50.084;8.576;2023-08-06T12:59:34;0.80;;;0.50;;
691;SDS011;70475;50.084;8.576;2023-08-06T13:02:04;1.33;;;0.60;;
691;SDS011;70475;50.084;8.576;2023-08-06T13:04:32;1.20;;;0.70;;
691;SDS011;70475;50.084;8.576;2023-08-06T13:07:00;1.07;;;0.50;;
691;SDS011;70475;50.084;8.576;2023-08-06T13:09:28;1.00;;;0.60;;
691;SDS011;70475;50.084;8.576;2023-08-06T13:11:58;0.90;;;0.60;;
691;SDS011;70475;50.084;8.576;2023-08-06T13:14:31;0.80;;;0.53;;
691;SDS011;70475;50.084;8.576;2023-08-06T13:16:58;1.10;;;0.63;;
691;SDS011;70475;50.084;8.576;2023-08-06T13:19:27;1.47;;;0.73;;
691;SDS011;70475;50.084;8.576;2023-08-06T13:21:58;1.30;;;0.60;;
691;SDS011;70475;50.084;8.576;2023-08-06T13:24:28;1.27;;;0.67;;
691;SDS011;70475;50.084;8.576;2023-08-06T13:26:55;2.13;;;0.67;;
691;SDS011;70475;50.084;8.576;2023-08-06T13:29:24;1.27;;;0.60;;
691;SDS011;70475;50.084;8.576;2023-08-06T13:31:52;1.40;;;0.60;;
691;SDS011;70475;50.084;8.576;2023-08-06T13:34:20;0.90;;;0.50;;
691;SDS011;70475;50.084;8.576;2023-08-06T13:36:49;0.73;;;0.43;;
691;SDS011;70475;50.084;8.576;2023-08-06T13:39:17;5.13;;;0.67;;
691;SDS011;70475;50.084;8.576;2023-08-06T13:41:45;1.87;;;0.90;;
691;SDS011;70475;50.084;8.576;2023-08-06T13:44:13;1.07;;;0.50;;
691;SDS011;70475;50.084;8.576;2023-08-06T13:46:41;1.20;;;0.90;;
691;SDS011;70475;50.084;8.576;2023-08-06T13:49:09;1.30;;;0.60;;
691;SDS011;70475;50.084;8.576;2023-08-06T13:51:37;1.07;;;0.60;;
691;SDS011;70475;50.084;8.576;2023-08-06T13:54:06;0.90;;;0.60;;
691;SDS011;70475;50.084;8.576;2023-08-06T13:56:34;1.33;;;0.60;;
691;SDS011;70475;50.084;8.576;2023-08-06T13:59:03;1.30;;;0.60;;
691;SDS011;70475;50.084;8.576;2023-08-06T14:01:31;2.20;;;1.33;;
691;SDS011;70475;50.084;8.576;2023-08-06T14:04:02;2.17;;;0.80;;
691;SDS011;70475;50.084;8.576;2023-08-06T14:06:30;0.90;;;0.70;;
691;SDS011;70475;50.084;8.576;2023-08-06T14:08:57;1.13;;;0.77;;
691;SDS011;70475;50.084;8.576;2023-08-06T14:11:26;0.90;;;0.60;;
691;SDS011;70475;50.084;8.576;2023-08-06T14:13:54;1.43;;;0.67;;
691;SDS011;70475;50.084;8.576;2023-08-06T14:16:21;1.57;;;0.67;;
691;SDS011;70475;50.084;8.576;2023-08-06T14:18:49;6.23;;;1.10;;
691;SDS011;70475;50.084;8.576;2023-08-06T14:21:16;1.53;;;0.70;;
691;SDS011;70475;50.084;8.576;2023-08-06T14:23:44;1.00;;;0.70;;
691;SDS011;70475;50.084;8.576;2023-08-06T14:26:12;2.03;;;0.80;;
691;SDS011;70475;50.084;8.576;2023-08-06T14:28:42;2.20;;;0.70;;
691;SDS011;70475;50.084;8.576;2023-08-06T14:31:10;0.70;;;0.50;;
691;SDS011;70475;50.084;8.576;2023-08-06T14:33:38;1.87;;;1.03;;
691;SDS011;70475;50.084;8.576;2023-08-06T14:36:06;2.13;;;0.90;;
691;SDS011;70475;50.084;8.576;2023-08-06T14:38:33;1.20;;;0.70;;
691;SDS011;70475;50.084;8.576;2023-08-06T14:41:19;1.23;;;0.60;;
691;SDS011;70475;50.084;8.576;2023-08-06T14:43:48;0.80;;;0.50;;
691;SDS011;70475;50.084;8.576;2023-08-06T14:46:15;1.20;;;0.63;;
691;SDS011;70475;50.084;8.576;2023-08-06T14:48:43;0.90;;;0.50;;
691;SDS011;70475;50.084;8.576;2023-08-06T14:51:10;0.93;;;0.40;;
691;SDS011;70475;50.084;8.576;2023-08-06T14:53:38;0.70;;;0.50;;
691;SDS011;70475;50.084;8.576;2023-08-06T14:56:06;1.10;;;0.50;;
691;SDS011;70475;50.084;8.576;2023-08-06T14:58:33;1.07;;;0.50;;
691;SDS011;70475;50.084;8.576;2023-08-06T15:01:02;2.20;;;0.50;;
691;SDS011;70475;50.084;8.576;2023-08-06T15:03:30;1.90;;;0.40;;
691;SDS011;70475;50.084;8.576;2023-08-06T15:05:58;1.47;;;0.53;;
691;SDS011;70475;50.084;8.576;2023-08-06T15:08:25;0.70;;;0.40;;
691;SDS011;70475;50.084;8.576;2023-08-06T15:10:53;0.80;;;0.40;;
691;SDS011;70475;50.084;8.576;2023-08-06T15:13:21;0.70;;;0.40;;
691;SDS011;70475;50.084;8.576;2023-08-06T15:15:48;0.70;;;0.40;;
691;SDS011;70475;50.084;8.576;2023-08-06T15:18:18;1.97;;;0.50;;
691;SDS011;70475;50.084;8.576;2023-08-06T15:20:46;1.13;;;0.60;;
691;SDS011;70475;50.084;8.576;2023-08-06T15:23:13;0.80;;;0.60;;